Terminal Aerodrome Forecast
Issued by NWS Sterling, VA

Current Version | Previous Version | Graphics & Text | Print | Product List | Glossary On
Versions: 1 2 3 4 5 6 7 8 9 10 11 12 13 14 15 16 17 18 19 20
000
FTUS41 KLWX 202342
TAFDCA
TAF
KDCA 202342Z 2100/2124 22007KT P6SM SCT070
     FM211000 27004KT P6SM FEW070
     FM212100 29007KT P6SM BKN050
     FM212200 30007KT P6SM SCT050=

USA.gov is the U.S. government's official web portal to all federal, state and local government web resources and services.